sensor_id;sensor_type;location;lat;lon;timestamp;P1;durP1;ratioP1;P2;durP2;ratioP2
6561;SDS011;3314;50.890;4.722;2023-12-04T00:00:49;12.9;;;4.2;;
6561;SDS011;3314;50.890;4.722;2023-12-04T00:02:37;11.9;;;4.2;;
6561;SDS011;3314;50.890;4.722;2023-12-04T00:04:36;12.8;;;4.6;;
6561;SDS011;3314;50.890;4.722;2023-12-04T00:06:36;12.4;;;4.0;;
6561;SDS011;3314;50.890;4.722;2023-12-04T00:08:36;13.6;;;4.4;;
6561;SDS011;3314;50.890;4.722;2023-12-04T00:10:35;15.8;;;4.4;;
6561;SDS011;3314;50.890;4.722;2023-12-04T00:12:35;12.7;;;4.2;;
6561;SDS011;3314;50.890;4.722;2023-12-04T00:14:35;13.5;;;3.6;;
6561;SDS011;3314;50.890;4.722;2023-12-04T00:16:35;11.7;;;3.6;;
6561;SDS011;3314;50.890;4.722;2023-12-04T00:18:35;17.2;;;4.0;;
6561;SDS011;3314;50.890;4.722;2023-12-04T00:20:34;14.9;;;4.6;;
6561;SDS011;3314;50.890;4.722;2023-12-04T00:22:34;11.7;;;4.3;;
6561;SDS011;3314;50.890;4.722;2023-12-04T00:24:34;11.0;;;3.9;;
6561;SDS011;3314;50.890;4.722;2023-12-04T00:26:34;14.3;;;4.3;;
6561;SDS011;3314;50.890;4.722;2023-12-04T00:28:35;13.6;;;3.8;;
6561;SDS011;3314;50.890;4.722;2023-12-04T00:30:35;12.8;;;3.9;;
6561;SDS011;3314;50.890;4.722;2023-12-04T00:32:35;15.0;;;4.1;;
6561;SDS011;3314;50.890;4.722;2023-12-04T00:34:34;10.7;;;4.0;;
6561;SDS011;3314;50.890;4.722;2023-12-04T00:36:34;14.9;;;4.8;;
6561;SDS011;3314;50.890;4.722;2023-12-04T00:38:34;13.8;;;5.1;;
6561;SDS011;3314;50.890;4.722;2023-12-04T00:40:33;14.9;;;4.3;;
6561;SDS011;3314;50.890;4.722;2023-12-04T00:42:33;12.3;;;3.3;;
6561;SDS011;3314;50.890;4.722;2023-12-04T00:44:32;10.3;;;3.5;;
6561;SDS011;3314;50.890;4.722;2023-12-04T00:46:32;13.8;;;4.6;;
6561;SDS011;3314;50.890;4.722;2023-12-04T00:48:32;13.1;;;4.3;;
6561;SDS011;3314;50.890;4.722;2023-12-04T00:50:31;13.2;;;4.5;;
6561;SDS011;3314;50.890;4.722;2023-12-04T00:52:31;12.3;;;3.8;;
6561;SDS011;3314;50.890;4.722;2023-12-04T00:54:31;13.1;;;4.5;;
6561;SDS011;3314;50.890;4.722;2023-12-04T00:56:30;11.8;;;3.6;;
6561;SDS011;3314;50.890;4.722;2023-12-04T00:58:30;13.9;;;4.4;;
6561;SDS011;3314;50.890;4.722;2023-12-04T01:00:32;11.8;;;3.3;;
6561;SDS011;3314;50.890;4.722;2023-12-04T01:02:21;10.8;;;4.0;;
6561;SDS011;3314;50.890;4.722;2023-12-04T01:04:20;15.3;;;4.7;;
6561;SDS011;3314;50.890;4.722;2023-12-04T01:06:20;12.2;;;3.6;;
6561;SDS011;3314;50.890;4.722;2023-12-04T01:08:20;14.7;;;4.1;;
6561;SDS011;3314;50.890;4.722;2023-12-04T01:10:20;11.1;;;3.7;;
6561;SDS011;3314;50.890;4.722;2023-12-04T01:12:20;13.5;;;4.4;;
6561;SDS011;3314;50.890;4.722;2023-12-04T01:14:20;12.9;;;4.2;;
6561;SDS011;3314;50.890;4.722;2023-12-04T01:16:19;13.4;;;4.3;;
6561;SDS011;3314;50.890;4.722;2023-12-04T01:18:19;12.8;;;4.5;;
6561;SDS011;3314;50.890;4.722;2023-12-04T01:20:19;14.7;;;4.4;;
6561;SDS011;3314;50.890;4.722;2023-12-04T01:22:18;11.9;;;3.4;;
6561;SDS011;3314;50.890;4.722;2023-12-04T01:24:18;11.1;;;3.8;;
6561;SDS011;3314;50.890;4.722;2023-12-04T01:26:18;13.7;;;4.0;;
6561;SDS011;3314;50.890;4.722;2023-12-04T01:28:17;12.7;;;4.5;;
6561;SDS011;3314;50.890;4.722;2023-12-04T01:30:17;13.2;;;4.4;;
6561;SDS011;3314;50.890;4.722;2023-12-04T01:32:17;12.7;;;3.8;;
6561;SDS011;3314;50.890;4.722;2023-12-04T01:34:16;15.3;;;3.9;;
6561;SDS011;3314;50.890;4.722;2023-12-04T01:36:16;11.4;;;4.0;;
6561;SDS011;3314;50.890;4.722;2023-12-04T01:38:16;13.0;;;4.3;;
6561;SDS011;3314;50.890;4.722;2023-12-04T01:40:15;11.8;;;4.1;;
6561;SDS011;3314;50.890;4.722;2023-12-04T01:42:15;16.0;;;5.2;;
6561;SDS011;3314;50.890;4.722;2023-12-04T01:44:14;16.8;;;4.1;;
6561;SDS011;3314;50.890;4.722;2023-12-04T01:46:15;12.6;;;3.8;;
6561;SDS011;3314;50.890;4.722;2023-12-04T01:48:15;12.2;;;3.8;;
6561;SDS011;3314;50.890;4.722;2023-12-04T01:50:15;14.0;;;4.0;;
6561;SDS011;3314;50.890;4.722;2023-12-04T01:52:15;13.7;;;3.9;;
6561;SDS011;3314;50.890;4.722;2023-12-04T01:54:15;10.9;;;4.0;;
6561;SDS011;3314;50.890;4.722;2023-12-04T01:56:16;13.2;;;4.0;;
6561;SDS011;3314;50.890;4.722;2023-12-04T01:58:17;12.2;;;3.9;;
6561;SDS011;3314;50.890;4.722;2023-12-04T02:00:21;9.6;;;3.0;;
6561;SDS011;3314;50.890;4.722;2023-12-04T02:02:08;14.5;;;4.5;;
6561;SDS011;3314;50.890;4.722;2023-12-04T02:04:09;11.5;;;3.6;;
6561;SDS011;3314;50.890;4.722;2023-12-04T02:06:08;15.0;;;4.8;;
6561;SDS011;3314;50.890;4.722;2023-12-04T02:08:08;15.2;;;4.8;;
6561;SDS011;3314;50.890;4.722;2023-12-04T02:10:09;14.6;;;4.8;;
6561;SDS011;3314;50.890;4.722;2023-12-04T02:12:09;13.3;;;4.0;;
6561;SDS011;3314;50.890;4.722;2023-12-04T02:14:09;13.0;;;4.5;;
6561;SDS011;3314;50.890;4.722;2023-12-04T02:16:09;10.0;;;3.8;;
6561;SDS011;3314;50.890;4.722;2023-12-04T02:18:09;12.8;;;4.4;;
6561;SDS011;3314;50.890;4.722;2023-12-04T02:20:10;14.8;;;4.4;;
6561;SDS011;3314;50.890;4.722;2023-12-04T02:22:11;11.8;;;3.7;;
6561;SDS011;3314;50.890;4.722;2023-12-04T02:24:01;13.2;;;4.5;;
6561;SDS011;3314;50.890;4.722;2023-12-04T02:26:02;13.1;;;3.9;;
6561;SDS011;3314;50.890;4.722;2023-12-04T02:28:05;14.0;;;4.5;;
6561;SDS011;3314;50.890;4.722;2023-12-04T02:30:05;11.5;;;4.0;;
6561;SDS011;3314;50.890;4.722;2023-12-04T02:32:07;13.6;;;4.3;;
6561;SDS011;3314;50.890;4.722;2023-12-04T02:34:07;11.7;;;4.0;;
6561;SDS011;3314;50.890;4.722;2023-12-04T02:35:58;14.1;;;5.1;;
6561;SDS011;3314;50.890;4.722;2023-12-04T02:37:59;11.5;;;4.4;;
6561;SDS011;3314;50.890;4.722;2023-12-04T02:39:59;13.4;;;4.3;;
6561;SDS011;3314;50.890;4.722;2023-12-04T02:41:59;11.4;;;3.8;;
6561;SDS011;3314;50.890;4.722;2023-12-04T02:43:59;12.9;;;4.3;;
6561;SDS011;3314;50.890;4.722;2023-12-04T02:45:58;11.2;;;3.8;;
6561;SDS011;3314;50.890;4.722;2023-12-04T02:47:58;14.1;;;4.9;;
6561;SDS011;3314;50.890;4.722;2023-12-04T02:49:58;14.5;;;4.2;;
6561;SDS011;3314;50.890;4.722;2023-12-04T02:51:58;13.6;;;4.0;;
6561;SDS011;3314;50.890;4.722;2023-12-04T02:53:57;14.1;;;3.8;;
6561;SDS011;3314;50.890;4.722;2023-12-04T02:55:57;13.0;;;3.6;;
6561;SDS011;3314;50.890;4.722;2023-12-04T02:57:57;13.4;;;4.2;;
6561;SDS011;3314;50.890;4.722;2023-12-04T02:59:56;13.2;;;4.4;;
6561;SDS011;3314;50.890;4.722;2023-12-04T03:01:56;12.4;;;3.6;;
6561;SDS011;3314;50.890;4.722;2023-12-04T03:03:56;14.1;;;4.9;;
6561;SDS011;3314;50.890;4.722;2023-12-04T03:05:55;14.8;;;4.4;;
6561;SDS011;3314;50.890;4.722;2023-12-04T03:07:55;13.0;;;4.1;;
6561;SDS011;3314;50.890;4.722;2023-12-04T03:09:55;11.2;;;3.8;;
6561;SDS011;3314;50.890;4.722;2023-12-04T03:11:54;15.2;;;4.2;;
6561;SDS011;3314;50.890;4.722;2023-12-04T03:13:54;11.4;;;4.0;;
6561;SDS011;3314;50.890;4.722;2023-12-04T03:15:54;11.8;;;3.6;;
6561;SDS011;3314;50.890;4.722;2023-12-04T03:17:53;12.8;;;4.4;;
6561;SDS011;3314;50.890;4.722;2023-12-04T03:19:53;14.1;;;4.2;;
6561;SDS011;3314;50.890;4.722;2023-12-04T03:21:53;13.6;;;4.8;;
6561;SDS011;3314;50.890;4.722;2023-12-04T03:23:52;12.7;;;3.9;;
6561;SDS011;3314;50.890;4.722;2023-12-04T03:25:52;13.2;;;4.5;;
6561;SDS011;3314;50.890;4.722;2023-12-04T03:27:52;12.2;;;4.3;;
6561;SDS011;3314;50.890;4.722;2023-12-04T03:29:51;14.6;;;4.6;;
6561;SDS011;3314;50.890;4.722;2023-12-04T03:31:51;16.1;;;4.2;;
6561;SDS011;3314;50.890;4.722;2023-12-04T03:33:51;12.0;;;4.0;;
6561;SDS011;3314;50.890;4.722;2023-12-04T03:35:50;13.5;;;4.7;;
6561;SDS011;3314;50.890;4.722;2023-12-04T03:37:50;12.1;;;3.7;;
6561;SDS011;3314;50.890;4.722;2023-12-04T03:39:50;13.7;;;4.7;;
6561;SDS011;3314;50.890;4.722;2023-12-04T03:41:50;15.4;;;3.9;;
6561;SDS011;3314;50.890;4.722;2023-12-04T03:43:49;12.3;;;3.6;;
6561;SDS011;3314;50.890;4.722;2023-12-04T03:45:49;11.6;;;3.6;;
6561;SDS011;3314;50.890;4.722;2023-12-04T03:47:49;11.9;;;3.9;;
6561;SDS011;3314;50.890;4.722;2023-12-04T03:49:48;10.4;;;3.7;;
6561;SDS011;3314;50.890;4.722;2023-12-04T03:51:48;11.6;;;3.6;;
6561;SDS011;3314;50.890;4.722;2023-12-04T03:53:48;12.1;;;4.0;;
6561;SDS011;3314;50.890;4.722;2023-12-04T03:55:47;10.1;;;3.8;;
6561;SDS011;3314;50.890;4.722;2023-12-04T03:57:47;13.1;;;4.0;;
6561;SDS011;3314;50.890;4.722;2023-12-04T03:59:47;9.9;;;2.9;;
6561;SDS011;3314;50.890;4.722;2023-12-04T04:01:46;12.5;;;4.1;;
6561;SDS011;3314;50.890;4.722;2023-12-04T04:03:47;12.5;;;4.0;;
6561;SDS011;3314;50.890;4.722;2023-12-04T04:05:46;11.5;;;3.4;;
6561;SDS011;3314;50.890;4.722;2023-12-04T04:07:46;13.1;;;3.9;;
6561;SDS011;3314;50.890;4.722;2023-12-04T04:09:35;13.3;;;3.1;;
6561;SDS011;3314;50.890;4.722;2023-12-04T04:11:35;14.0;;;3.9;;
6561;SDS011;3314;50.890;4.722;2023-12-04T04:13:35;10.3;;;3.0;;
6561;SDS011;3314;50.890;4.722;2023-12-04T04:15:37;10.7;;;3.4;;
6561;SDS011;3314;50.890;4.722;2023-12-04T04:17:37;12.5;;;3.9;;
6561;SDS011;3314;50.890;4.722;2023-12-04T04:19:36;12.2;;;3.5;;
6561;SDS011;3314;50.890;4.722;2023-12-04T04:21:39;13.8;;;4.1;;
6561;SDS011;3314;50.890;4.722;2023-12-04T04:23:38;10.9;;;3.2;;
6561;SDS011;3314;50.890;4.722;2023-12-04T04:25:38;13.7;;;3.2;;
6561;SDS011;3314;50.890;4.722;2023-12-04T04:27:38;11.8;;;3.6;;
6561;SDS011;3314;50.890;4.722;2023-12-04T04:29:38;10.9;;;3.4;;
6561;SDS011;3314;50.890;4.722;2023-12-04T04:31:37;10.5;;;3.5;;
6561;SDS011;3314;50.890;4.722;2023-12-04T04:33:37;11.5;;;3.3;;
6561;SDS011;3314;50.890;4.722;2023-12-04T04:35:36;10.7;;;3.2;;
6561;SDS011;3314;50.890;4.722;2023-12-04T04:37:36;13.0;;;3.4;;
6561;SDS011;3314;50.890;4.722;2023-12-04T04:39:36;12.4;;;4.2;;
6561;SDS011;3314;50.890;4.722;2023-12-04T04:41:36;10.0;;;3.0;;
6561;SDS011;3314;50.890;4.722;2023-12-04T04:43:36;12.7;;;3.2;;
6561;SDS011;3314;50.890;4.722;2023-12-04T04:45:36;11.3;;;2.8;;
6561;SDS011;3314;50.890;4.722;2023-12-04T04:47:36;11.1;;;2.9;;
6561;SDS011;3314;50.890;4.722;2023-12-04T04:49:35;9.2;;;3.0;;
6561;SDS011;3314;50.890;4.722;2023-12-04T04:51:35;10.6;;;3.8;;
6561;SDS011;3314;50.890;4.722;2023-12-04T04:53:34;11.3;;;3.1;;
6561;SDS011;3314;50.890;4.722;2023-12-04T04:55:35;12.7;;;3.6;;
6561;SDS011;3314;50.890;4.722;2023-12-04T04:57:24;12.6;;;3.3;;
6561;SDS011;3314;50.890;4.722;2023-12-04T04:59:23;9.2;;;3.2;;
6561;SDS011;3314;50.890;4.722;2023-12-04T05:01:25;11.1;;;3.4;;
6561;SDS011;3314;50.890;4.722;2023-12-04T05:03:24;11.3;;;3.4;;
6561;SDS011;3314;50.890;4.722;2023-12-04T05:05:24;8.9;;;2.6;;
6561;SDS011;3314;50.890;4.722;2023-12-04T05:07:24;11.6;;;3.2;;
6561;SDS011;3314;50.890;4.722;2023-12-04T05:09:24;10.2;;;3.1;;
6561;SDS011;3314;50.890;4.722;2023-12-04T05:11:24;8.8;;;2.7;;
6561;SDS011;3314;50.890;4.722;2023-12-04T05:13:24;11.6;;;3.2;;
6561;SDS011;3314;50.890;4.722;2023-12-04T05:15:24;11.5;;;3.3;;
6561;SDS011;3314;50.890;4.722;2023-12-04T05:17:24;10.1;;;3.2;;
6561;SDS011;3314;50.890;4.722;2023-12-04T05:19:23;11.6;;;3.4;;
6561;SDS011;3314;50.890;4.722;2023-12-04T05:21:23;10.3;;;2.9;;
6561;SDS011;3314;50.890;4.722;2023-12-04T05:23:23;10.9;;;3.1;;
6561;SDS011;3314;50.890;4.722;2023-12-04T05:25:22;10.1;;;3.0;;
6561;SDS011;3314;50.890;4.722;2023-12-04T05:27:22;10.5;;;3.0;;
6561;SDS011;3314;50.890;4.722;2023-12-04T05:29:22;10.9;;;2.8;;
6561;SDS011;3314;50.890;4.722;2023-12-04T05:31:22;10.1;;;3.0;;
6561;SDS011;3314;50.890;4.722;2023-12-04T05:33:22;9.9;;;3.1;;
6561;SDS011;3314;50.890;4.722;2023-12-04T05:35:21;10.8;;;3.1;;
6561;SDS011;3314;50.890;4.722;2023-12-04T05:37:21;10.1;;;2.7;;
6561;SDS011;3314;50.890;4.722;2023-12-04T05:39:21;9.7;;;2.6;;
6561;SDS011;3314;50.890;4.722;2023-12-04T05:41:20;11.3;;;2.8;;
6561;SDS011;3314;50.890;4.722;2023-12-04T05:43:20;11.6;;;2.4;;
6561;SDS011;3314;50.890;4.722;2023-12-04T05:45:21;10.6;;;3.3;;
6561;SDS011;3314;50.890;4.722;2023-12-04T05:47:20;10.0;;;2.4;;
6561;SDS011;3314;50.890;4.722;2023-12-04T05:49:20;9.8;;;2.9;;
6561;SDS011;3314;50.890;4.722;2023-12-04T05:51:20;10.2;;;2.6;;
6561;SDS011;3314;50.890;4.722;2023-12-04T05:53:19;10.3;;;2.9;;
6561;SDS011;3314;50.890;4.722;2023-12-04T05:55:20;10.7;;;2.8;;
6561;SDS011;3314;50.890;4.722;2023-12-04T05:57:09;8.8;;;3.0;;
6561;SDS011;3314;50.890;4.722;2023-12-04T05:59:09;9.5;;;3.3;;
6561;SDS011;3314;50.890;4.722;2023-12-04T06:01:14;12.1;;;2.9;;
6561;SDS011;3314;50.890;4.722;2023-12-04T06:03:14;11.0;;;2.8;;
6561;SDS011;3314;50.890;4.722;2023-12-04T06:05:13;11.4;;;3.3;;
6561;SDS011;3314;50.890;4.722;2023-12-04T06:07:14;10.7;;;3.7;;
6561;SDS011;3314;50.890;4.722;2023-12-04T06:09:15;11.5;;;4.0;;
6561;SDS011;3314;50.890;4.722;2023-12-04T06:11:15;12.0;;;3.5;;
6561;SDS011;3314;50.890;4.722;2023-12-04T06:13:15;10.1;;;3.5;;
6561;SDS011;3314;50.890;4.722;2023-12-04T06:15:15;11.4;;;3.8;;
6561;SDS011;3314;50.890;4.722;2023-12-04T06:17:14;10.1;;;3.5;;
6561;SDS011;3314;50.890;4.722;2023-12-04T06:19:14;9.4;;;2.9;;
6561;SDS011;3314;50.890;4.722;2023-12-04T06:21:04;11.3;;;3.6;;
6561;SDS011;3314;50.890;4.722;2023-12-04T06:23:04;10.4;;;3.7;;
6561;SDS011;3314;50.890;4.722;2023-12-04T06:25:05;12.4;;;3.2;;
6561;SDS011;3314;50.890;4.722;2023-12-04T06:27:06;9.0;;;2.7;;
6561;SDS011;3314;50.890;4.722;2023-12-04T06:29:06;11.9;;;3.3;;
6561;SDS011;3314;50.890;4.722;2023-12-04T06:31:06;9.7;;;2.6;;
6561;SDS011;3314;50.890;4.722;2023-12-04T06:33:07;10.2;;;3.4;;
6561;SDS011;3314;50.890;4.722;2023-12-04T06:35:07;10.0;;;3.0;;
6561;SDS011;3314;50.890;4.722;2023-12-04T06:37:08;9.1;;;2.6;;
6561;SDS011;3314;50.890;4.722;2023-12-04T06:39:09;11.2;;;3.1;;
6561;SDS011;3314;50.890;4.722;2023-12-04T06:41:09;10.4;;;2.9;;
6561;SDS011;3314;50.890;4.722;2023-12-04T06:42:59;11.3;;;3.6;;
6561;SDS011;3314;50.890;4.722;2023-12-04T06:44:59;9.8;;;3.4;;
6561;SDS011;3314;50.890;4.722;2023-12-04T06:46:58;9.7;;;2.9;;
6561;SDS011;3314;50.890;4.722;2023-12-04T06:48:59;10.0;;;2.8;;
6561;SDS011;3314;50.890;4.722;2023-12-04T06:50:59;11.4;;;3.1;;
6561;SDS011;3314;50.890;4.722;2023-12-04T06:52:58;9.7;;;2.7;;
6561;SDS011;3314;50.890;4.722;2023-12-04T06:54:58;10.2;;;3.4;;
6561;SDS011;3314;50.890;4.722;2023-12-04T06:56:58;11.7;;;3.3;;
6561;SDS011;3314;50.890;4.722;2023-12-04T06:58:58;12.1;;;3.3;;
6561;SDS011;3314;50.890;4.722;2023-12-04T07:01:02;10.9;;;3.0;;
6561;SDS011;3314;50.890;4.722;2023-12-04T07:03:02;10.3;;;3.1;;
6561;SDS011;3314;50.890;4.722;2023-12-04T07:05:03;10.9;;;3.0;;
6561;SDS011;3314;50.890;4.722;2023-12-04T07:06:53;12.9;;;3.2;;
6561;SDS011;3314;50.890;4.722;2023-12-04T07:08:53;9.9;;;3.4;;
6561;SDS011;3314;50.890;4.722;2023-12-04T07:10:53;11.5;;;3.0;;
6561;SDS011;3314;50.890;4.722;2023-12-04T07:12:52;11.2;;;3.3;;
6561;SDS011;3314;50.890;4.722;2023-12-04T07:14:52;9.7;;;2.9;;
6561;SDS011;3314;50.890;4.722;2023-12-04T07:16:51;9.4;;;3.0;;
6561;SDS011;3314;50.890;4.722;2023-12-04T07:18:51;10.5;;;3.1;;
6561;SDS011;3314;50.890;4.722;2023-12-04T07:20:51;10.8;;;3.0;;
6561;SDS011;3314;50.890;4.722;2023-12-04T07:22:51;12.6;;;3.2;;
6561;SDS011;3314;50.890;4.722;2023-12-04T07:24:50;12.6;;;3.5;;
6561;SDS011;3314;50.890;4.722;2023-12-04T07:26:50;13.9;;;3.7;;
6561;SDS011;3314;50.890;4.722;2023-12-04T07:28:50;12.8;;;3.2;;
6561;SDS011;3314;50.890;4.722;2023-12-04T07:30:49;11.2;;;3.6;;
6561;SDS011;3314;50.890;4.722;2023-12-04T07:32:49;11.4;;;3.1;;
6561;SDS011;3314;50.890;4.722;2023-12-04T07:34:49;11.7;;;3.3;;
6561;SDS011;3314;50.890;4.722;2023-12-04T07:36:49;10.3;;;3.6;;
6561;SDS011;3314;50.890;4.722;2023-12-04T07:38:49;10.3;;;3.5;;
6561;SDS011;3314;50.890;4.722;2023-12-04T07:40:49;12.4;;;3.6;;
6561;SDS011;3314;50.890;4.722;2023-12-04T07:42:49;12.0;;;3.7;;
6561;SDS011;3314;50.890;4.722;2023-12-04T07:44:48;11.5;;;3.5;;
6561;SDS011;3314;50.890;4.722;2023-12-04T07:46:48;9.2;;;3.3;;
6561;SDS011;3314;50.890;4.722;2023-12-04T07:48:48;9.8;;;2.9;;
6561;SDS011;3314;50.890;4.722;2023-12-04T07:50:47;11.8;;;3.7;;
6561;SDS011;3314;50.890;4.722;2023-12-04T07:52:47;11.9;;;3.2;;
6561;SDS011;3314;50.890;4.722;2023-12-04T07:54:47;9.8;;;3.2;;
6561;SDS011;3314;50.890;4.722;2023-12-04T07:56:46;9.3;;;2.7;;
6561;SDS011;3314;50.890;4.722;2023-12-04T07:58:46;10.7;;;3.0;;
6561;SDS011;3314;50.890;4.722;2023-12-04T08:00:51;13.5;;;3.7;;
6561;SDS011;3314;50.890;4.722;2023-12-04T08:02:40;13.3;;;3.1;;
6561;SDS011;3314;50.890;4.722;2023-12-04T08:04:39;13.9;;;4.1;;
6561;SDS011;3314;50.890;4.722;2023-12-04T08:06:40;10.9;;;3.2;;
6561;SDS011;3314;50.890;4.722;2023-12-04T08:08:39;9.1;;;2.8;;
6561;SDS011;3314;50.890;4.722;2023-12-04T08:10:39;10.8;;;3.2;;
6561;SDS011;3314;50.890;4.722;2023-12-04T08:12:39;11.0;;;3.2;;
6561;SDS011;3314;50.890;4.722;2023-12-04T08:14:39;11.1;;;3.4;;
6561;SDS011;3314;50.890;4.722;2023-12-04T08:16:38;11.4;;;3.9;;
6561;SDS011;3314;50.890;4.722;2023-12-04T08:18:38;11.5;;;3.6;;
6561;SDS011;3314;50.890;4.722;2023-12-04T08:20:37;11.5;;;2.9;;
6561;SDS011;3314;50.890;4.722;2023-12-04T08:22:37;10.9;;;3.1;;
6561;SDS011;3314;50.890;4.722;2023-12-04T08:24:37;9.1;;;2.7;;
6561;SDS011;3314;50.890;4.722;2023-12-04T08:26:36;10.1;;;3.0;;
6561;SDS011;3314;50.890;4.722;2023-12-04T08:28:38;9.2;;;3.2;;
6561;SDS011;3314;50.890;4.722;2023-12-04T08:30:38;10.0;;;3.5;;
6561;SDS011;3314;50.890;4.722;2023-12-04T08:32:38;13.6;;;3.1;;
6561;SDS011;3314;50.890;4.722;2023-12-04T08:34:37;9.8;;;3.3;;
6561;SDS011;3314;50.890;4.722;2023-12-04T08:36:37;9.6;;;3.0;;
6561;SDS011;3314;50.890;4.722;2023-12-04T08:38:37;11.2;;;3.2;;
6561;SDS011;3314;50.890;4.722;2023-12-04T08:40:37;11.7;;;2.9;;
6561;SDS011;3314;50.890;4.722;2023-12-04T08:42:37;11.1;;;3.0;;
6561;SDS011;3314;50.890;4.722;2023-12-04T08:44:37;8.8;;;2.6;;
6561;SDS011;3314;50.890;4.722;2023-12-04T08:46:37;10.6;;;3.2;;
6561;SDS011;3314;50.890;4.722;2023-12-04T08:48:36;10.7;;;3.6;;
6561;SDS011;3314;50.890;4.722;2023-12-04T08:50:37;9.3;;;2.8;;
6561;SDS011;3314;50.890;4.722;2023-12-04T08:52:37;11.8;;;2.6;;
6561;SDS011;3314;50.890;4.722;2023-12-04T08:54:38;10.0;;;3.2;;
6561;SDS011;3314;50.890;4.722;2023-12-04T08:56:27;8.6;;;2.6;;
6561;SDS011;3314;50.890;4.722;2023-12-04T08:58:26;11.7;;;3.5;;
6561;SDS011;3314;50.890;4.722;2023-12-04T09:00:31;11.5;;;3.4;;
6561;SDS011;3314;50.890;4.722;2023-12-04T09:02:31;10.9;;;3.4;;
6561;SDS011;3314;50.890;4.722;2023-12-04T09:04:31;15.0;;;3.5;;
6561;SDS011;3314;50.890;4.722;2023-12-04T09:06:31;11.7;;;2.8;;
6561;SDS011;3314;50.890;4.722;2023-12-04T09:08:30;12.1;;;3.2;;
6561;SDS011;3314;50.890;4.722;2023-12-04T09:10:30;10.1;;;3.1;;
6561;SDS011;3314;50.890;4.722;2023-12-04T09:12:30;9.9;;;3.0;;
6561;SDS011;3314;50.890;4.722;2023-12-04T09:14:30;10.5;;;3.8;;
6561;SDS011;3314;50.890;4.722;2023-12-04T09:16:30;9.5;;;3.2;;
6561;SDS011;3314;50.890;4.722;2023-12-04T09:18:29;10.7;;;2.9;;
6561;SDS011;3314;50.890;4.722;2023-12-04T09:20:29;10.4;;;3.2;;
6561;SDS011;3314;50.890;4.722;2023-12-04T09:22:28;10.8;;;2.9;;
6561;SDS011;3314;50.890;4.722;2023-12-04T09:24:29;9.4;;;3.2;;
6561;SDS011;3314;50.890;4.722;2023-12-04T09:26:29;8.7;;;2.4;;
6561;SDS011;3314;50.890;4.722;2023-12-04T09:28:28;10.8;;;3.2;;
6561;SDS011;3314;50.890;4.722;2023-12-04T09:30:28;10.0;;;3.2;;
6561;SDS011;3314;50.890;4.722;2023-12-04T09:32:19;10.7;;;3.3;;
6561;SDS011;3314;50.890;4.722;2023-12-04T09:34:20;10.1;;;3.5;;
6561;SDS011;3314;50.890;4.722;2023-12-04T09:36:20;13.2;;;3.8;;
6561;SDS011;3314;50.890;4.722;2023-12-04T09:38:20;10.2;;;3.2;;
6561;SDS011;3314;50.890;4.722;2023-12-04T09:40:19;9.3;;;3.0;;
6561;SDS011;3314;50.890;4.722;2023-12-04T09:42:19;12.1;;;3.6;;
6561;SDS011;3314;50.890;4.722;2023-12-04T09:44:19;11.1;;;3.3;;
6561;SDS011;3314;50.890;4.722;2023-12-04T09:46:18;9.8;;;3.4;;
6561;SDS011;3314;50.890;4.722;2023-12-04T09:48:18;11.2;;;3.8;;
6561;SDS011;3314;50.890;4.722;2023-12-04T09:50:21;11.2;;;3.0;;
6561;SDS011;3314;50.890;4.722;2023-12-04T09:52:21;9.9;;;3.0;;
6561;SDS011;3314;50.890;4.722;2023-12-04T09:54:20;10.6;;;3.0;;
6561;SDS011;3314;50.890;4.722;2023-12-04T09:56:20;10.6;;;3.2;;
6561;SDS011;3314;50.890;4.722;2023-12-04T09:58:21;11.5;;;3.6;;
6561;SDS011;3314;50.890;4.722;2023-12-04T10:00:13;12.6;;;3.9;;
6561;SDS011;3314;50.890;4.722;2023-12-04T10:02:13;13.5;;;3.9;;
6561;SDS011;3314;50.890;4.722;2023-12-04T10:04:13;11.3;;;3.6;;
6561;SDS011;3314;50.890;4.722;2023-12-04T10:06:14;10.5;;;3.3;;
6561;SDS011;3314;50.890;4.722;2023-12-04T10:08:14;12.0;;;3.0;;
6561;SDS011;3314;50.890;4.722;2023-12-04T10:10:15;14.3;;;4.5;;
6561;SDS011;3314;50.890;4.722;2023-12-04T10:12:14;14.2;;;5.0;;
6561;SDS011;3314;50.890;4.722;2023-12-04T10:14:18;10.6;;;3.5;;
6561;SDS011;3314;50.890;4.722;2023-12-04T10:16:08;10.2;;;3.7;;
6561;SDS011;3314;50.890;4.722;2023-12-04T10:18:08;15.6;;;4.8;;
6561;SDS011;3314;50.890;4.722;2023-12-04T10:20:12;12.2;;;3.8;;
6561;SDS011;3314;50.890;4.722;2023-12-04T10:22:14;15.5;;;4.0;;
6561;SDS011;3314;50.890;4.722;2023-12-04T10:24:26;11.8;;;4.2;;
6561;SDS011;3314;50.890;4.722;2023-12-04T10:26:14;11.7;;;3.7;;
6561;SDS011;3314;50.890;4.722;2023-12-04T10:28:14;11.0;;;3.8;;
6561;SDS011;3314;50.890;4.722;2023-12-04T10:30:22;13.6;;;4.5;;
6561;SDS011;3314;50.890;4.722;2023-12-04T10:32:10;10.8;;;3.5;;
6561;SDS011;3314;50.890;4.722;2023-12-04T10:34:10;10.8;;;3.8;;
6561;SDS011;3314;50.890;4.722;2023-12-04T10:36:11;10.0;;;4.0;;
6561;SDS011;3314;50.890;4.722;2023-12-04T10:38:11;11.7;;;4.4;;
6561;SDS011;3314;50.890;4.722;2023-12-04T10:40:11;11.1;;;3.9;;
6561;SDS011;3314;50.890;4.722;2023-12-04T10:42:11;15.3;;;4.4;;
6561;SDS011;3314;50.890;4.722;2023-12-04T10:44:15;10.5;;;4.2;;
6561;SDS011;3314;50.890;4.722;2023-12-04T10:46:03;12.0;;;3.8;;
6561;SDS011;3314;50.890;4.722;2023-12-04T10:48:06;13.9;;;5.3;;
6561;SDS011;3314;50.890;4.722;2023-12-04T10:50:08;11.4;;;4.1;;
6561;SDS011;3314;50.890;4.722;2023-12-04T10:52:10;13.4;;;5.3;;
6561;SDS011;3314;50.890;4.722;2023-12-04T10:53:59;12.7;;;4.4;;
6561;SDS011;3314;50.890;4.722;2023-12-04T10:55:58;10.7;;;4.0;;
6561;SDS011;3314;50.890;4.722;2023-12-04T10:57:59;12.6;;;4.7;;
6561;SDS011;3314;50.890;4.722;2023-12-04T11:00:03;13.2;;;4.2;;
6561;SDS011;3314;50.890;4.722;2023-12-04T11:02:04;12.1;;;4.8;;
6561;SDS011;3314;50.890;4.722;2023-12-04T11:04:07;14.9;;;5.2;;
6561;SDS011;3314;50.890;4.722;2023-12-04T11:05:59;17.2;;;4.6;;
6561;SDS011;3314;50.890;4.722;2023-12-04T11:08:01;15.1;;;4.4;;
6561;SDS011;3314;50.890;4.722;2023-12-04T11:10:01;15.4;;;5.7;;
6561;SDS011;3314;50.890;4.722;2023-12-04T11:12:02;12.4;;;4.6;;
6561;SDS011;3314;50.890;4.722;2023-12-04T11:14:04;15.1;;;5.9;;
6561;SDS011;3314;50.890;4.722;2023-12-04T11:15:55;18.6;;;5.5;;
6561;SDS011;3314;50.890;4.722;2023-12-04T11:17:59;16.3;;;5.4;;
6561;SDS011;3314;50.890;4.722;2023-12-04T11:19:59;15.0;;;5.8;;
6561;SDS011;3314;50.890;4.722;2023-12-04T11:22:02;11.4;;;4.5;;
6561;SDS011;3314;50.890;4.722;2023-12-04T11:23:51;15.1;;;5.8;;
6561;SDS011;3314;50.890;4.722;2023-12-04T11:25:51;14.6;;;4.8;;
6561;SDS011;3314;50.890;4.722;2023-12-04T11:27:52;14.5;;;5.5;;
6561;SDS011;3314;50.890;4.722;2023-12-04T11:29:53;14.6;;;5.6;;
6561;SDS011;3314;50.890;4.722;2023-12-04T11:31:52;11.8;;;4.4;;
6561;SDS011;3314;50.890;4.722;2023-12-04T11:33:52;11.6;;;4.8;;
6561;SDS011;3314;50.890;4.722;2023-12-04T11:35:52;14.7;;;5.3;;
6561;SDS011;3314;50.890;4.722;2023-12-04T11:37:52;13.5;;;5.1;;
6561;SDS011;3314;50.890;4.722;2023-12-04T11:39:52;14.2;;;5.7;;
6561;SDS011;3314;50.890;4.722;2023-12-04T11:41:52;20.2;;;5.7;;
6561;SDS011;3314;50.890;4.722;2023-12-04T11:43:52;14.2;;;4.8;;
6561;SDS011;3314;50.890;4.722;2023-12-04T11:45:54;15.5;;;5.8;;
6561;SDS011;3314;50.890;4.722;2023-12-04T11:47:55;15.9;;;6.1;;
6561;SDS011;3314;50.890;4.722;2023-12-04T11:49:55;12.3;;;4.4;;
6561;SDS011;3314;50.890;4.722;2023-12-04T11:51:54;12.9;;;5.3;;
6561;SDS011;3314;50.890;4.722;2023-12-04T11:53:54;13.8;;;5.4;;
6561;SDS011;3314;50.890;4.722;2023-12-04T11:55:55;12.9;;;4.6;;
6561;SDS011;3314;50.890;4.722;2023-12-04T11:57:43;14.4;;;5.6;;
6561;SDS011;3314;50.890;4.722;2023-12-04T11:59:43;13.9;;;5.4;;
6561;SDS011;3314;50.890;4.722;2023-12-04T12:01:50;14.0;;;5.6;;
6561;SDS011;3314;50.890;4.722;2023-12-04T12:03:52;14.8;;;5.1;;
6561;SDS011;3314;50.890;4.722;2023-12-04T12:05:52;14.5;;;5.5;;
6561;SDS011;3314;50.890;4.722;2023-12-04T12:07:42;12.8;;;4.9;;
6561;SDS011;3314;50.890;4.722;2023-12-04T12:09:42;15.0;;;5.5;;
6561;SDS011;3314;50.890;4.722;2023-12-04T12:11:41;14.6;;;5.7;;
6561;SDS011;3314;50.890;4.722;2023-12-04T12:13:41;14.4;;;5.4;;
6561;SDS011;3314;50.890;4.722;2023-12-04T12:15:41;13.8;;;4.9;;
6561;SDS011;3314;50.890;4.722;2023-12-04T12:17:41;12.5;;;4.3;;
6561;SDS011;3314;50.890;4.722;2023-12-04T12:19:40;14.1;;;5.3;;
6561;SDS011;3314;50.890;4.722;2023-12-04T12:21:40;12.6;;;4.3;;
6561;SDS011;3314;50.890;4.722;2023-12-04T12:23:40;19.4;;;5.0;;
6561;SDS011;3314;50.890;4.722;2023-12-04T12:25:40;14.2;;;5.3;;
6561;SDS011;3314;50.890;4.722;2023-12-04T12:27:40;13.1;;;4.7;;
6561;SDS011;3314;50.890;4.722;2023-12-04T12:29:39;15.1;;;5.7;;
6561;SDS011;3314;50.890;4.722;2023-12-04T12:31:39;11.7;;;4.8;;
6561;SDS011;3314;50.890;4.722;2023-12-04T12:33:39;19.1;;;5.2;;
6561;SDS011;3314;50.890;4.722;2023-12-04T12:35:38;13.0;;;5.1;;